Flight Track Log - Related Links

Times and Time Zones

All times are in EDT time to prevent confusion due to time zone crossing. See the CSH9157 flight status page for this flight to view local times or setup timezone preferences in your user account.

Time Position Orientation Groundspeed Altitude Reporting Facility
EDT Latitude Longitude Course Direction KTS MPH feet Rate Location/Type
Fri 11:14:00 PM 31.0033 120.1617 343° North  Level Estimated
Fri 11:15:00 PM 31.0893 120.1314 343° North  Level Estimated
Fri 11:16:00 PM 31.1754 120.1011 343° North  Level Estimated
Fri 11:17:00 PM 31.2614 120.0707 343° North  Level Estimated
Fri 11:18:00 PM 31.3557 120.0374 343° North  Level Estimated
Fri 11:19:00 PM 31.4499 120.0040 343° North  Level Estimated
Fri 11:20:00 PM 31.5441 119.9705 343° North  Level Estimated
Fri 11:21:00 PM 31.6383 119.9370 343° North  Level Estimated
Fri 11:22:00 PM 31.7325 119.9034 343° North  Level Estimated
Fri 11:23:00 PM 31.8267 119.8697 343° North  Level Estimated
Fri 11:24:00 PM 31.9209 119.8360 343° North  Level Estimated
Fri 11:25:00 PM 32.0151 119.8022 343° North  Level Estimated
Fri 11:26:00 PM 32.1093 119.7683 343° North  Level Estimated
Fri 11:27:00 PM 32.2034 119.7343 343° North  Level Estimated
Fri 11:28:00 PM 32.2976 119.7003 343° North  Level Estimated
Fri 11:29:00 PM 32.3917 119.6662 343° North  Level Estimated
Fri 11:30:00 PM 32.4859 119.6321 343° North  Level Estimated
Fri 11:31:00 PM 32.5800 119.5978 343° North  Level Estimated
Fri 11:32:00 PM 32.6741 119.5635 343° North  Level Estimated
Fri 11:33:00 PM 32.7682 119.5291 343° North  Level Estimated
Fri 11:34:00 PM 32.8623 119.4947 343° North  Level Estimated
Fri 11:35:00 PM 32.9564 119.4602 343° North  Level Estimated
Fri 11:36:00 PM 33.0505 119.4256 343° North  Level Estimated
Fri 11:37:00 PM 33.1446 119.3909 343° North  Level Estimated
Fri 11:38:00 PM 33.2386 119.3562 343° North  Level Estimated
Fri 11:39:00 PM 33.3326 119.3213 343° North  Level Estimated
Fri 11:40:00 PM 33.4267 119.2864 343° North  Level Estimated
Fri 11:41:00 PM 33.5207 119.2515 343° North  Level Estimated
Fri 11:42:00 PM 33.6147 119.2164 343° North  Level Estimated
Fri 11:43:00 PM 33.7088 119.1813 343° North  Level Estimated
Fri 11:44:00 PM 33.8027 119.1461 343° North  Level Estimated
Fri 11:45:00 PM 33.8967 119.1108 343° North  Level Estimated
Fri 11:46:00 PM 33.9907 119.0755 343° North  Level Estimated
Fri 11:47:00 PM 34.0847 119.0400 343° North  Level Estimated
Fri 11:48:00 PM 34.1786 119.0045 343° North  Level Estimated
Fri 11:49:00 PM 34.2726 118.9689 343° North  Level Estimated
Fri 11:50:00 PM 34.3665 118.9333 343° North  Level Estimated
Fri 11:51:00 PM 34.4605 118.8975 343° North  Level Estimated
Fri 11:52:00 PM 34.5544 118.8617 343° North  Level Estimated
Fri 11:53:00 PM 34.6483 118.8258 343° North  Level Estimated
Fri 11:54:00 PM 34.7422 118.7898 343° North  Level Estimated
Fri 11:55:00 PM 34.8361 118.7537 342° North  Level Estimated
Fri 11:56:00 PM 34.9299 118.7175 342° North  Level Estimated
Fri 11:57:00 PM 35.0238 118.6813 342° North  Level Estimated
Fri 11:58:00 PM 35.1177 118.6450 342° North  Level Estimated
Fri 11:59:00 PM 35.2115 118.6086 342° North  Level Estimated
Sat 12:00:00 AM 35.3053 118.5721 342° North  Level Estimated
Sat 12:01:00 AM 35.3992 118.5355 342° North  Level Estimated
Sat 12:02:00 AM 35.4930 118.4988 342° North  Level Estimated
Sat 12:03:00 AM 35.5868 118.4621 342° North  Level Estimated
Sat 12:04:00 AM 35.6805 118.4252 342° North  Level Estimated
Sat 12:05:00 AM 35.7743 118.3883 342° North  Level Estimated
Sat 12:06:00 AM 35.8681 118.3513 342° North  Level Estimated
Sat 12:07:00 AM 35.9618 118.3142 342° North  Level Estimated
Sat 12:08:00 AM 36.0556 118.2770 342° North  Level Estimated
Sat 12:09:00 AM 36.1493 118.2397 342° North  Level Estimated
Sat 12:10:00 AM 36.2430 118.2024 342° North  Level Estimated
Sat 12:11:00 AM 36.3368 118.1649 342° North  Level Estimated
Sat 12:12:00 AM 36.4304 118.1274 342° North  Level Estimated
Sat 12:13:00 AM 36.5241 118.0898 342° North  Level Estimated
Sat 12:14:00 AM 36.6178 118.0520 342° North  Level Estimated
Sat 12:15:00 AM 36.7115 118.0142 342° North  Level Estimated
Sat 12:16:00 AM 36.8051 117.9763 342° North  Level Estimated
Sat 12:17:00 AM 36.8987 117.9383 342° North  Level Estimated
Sat 12:18:00 AM 36.9924 117.9002 342° North  Level Estimated
Sat 12:19:00 AM 37.0860 117.8620 342° North  Level Estimated
Sat 12:20:00 AM 37.1796 117.8237 342° North  Level Estimated
Sat 12:21:00 AM 37.2732 117.7853 342° North  Level Estimated
Sat 12:22:00 AM 37.3667 117.7469 342° North  Level Estimated
Sat 12:23:00 AM 37.4603 117.7083 342° North  Level Estimated
Sat 12:24:00 AM 37.5538 117.6696 342° North  Level Estimated
Sat 12:25:00 AM 37.6474 117.6309 342° North  Level Estimated
Sat 12:26:00 AM 37.7409 117.5920 342° North  Level Estimated
Sat 12:27:00 AM 37.8344 117.5531 342° North  Level Estimated
Sat 12:28:00 AM 37.9279 117.5140 342° North  Level Estimated
Sat 12:29:00 AM 38.0214 117.4748 342° North  Level Estimated
Sat 12:30:00 AM 38.1149 117.4356 342° North  Level Estimated
Sat 12:31:00 AM 38.2083 117.3962 342° North  Level Estimated
Sat 12:32:00 AM 38.3018 117.3568 342° North  Level Estimated
Sat 12:33:00 AM 38.3952 117.3172 342° North  Level Estimated
Sat 12:34:00 AM 38.4886 117.2775 342° North  Level Estimated
Sat 12:35:00 AM 38.5820 117.2378 342° North  Level Estimated
Sat 12:36:00 AM 38.6754 117.1979 342° North  Level Estimated
Sat 12:37:00 AM 38.7688 117.1579 342° North  Level Estimated
Sat 12:38:00 AM 38.8622 117.1178 342° North  Level Estimated
Sat 12:39:00 AM 38.9555 117.0777 341° North  Level Estimated
Sat 12:40:00 AM 39.0489 117.0374 341° North  Level Estimated
Sat 12:41:00 AM 39.1422 116.9970 341° North  Level Estimated
Sat 12:42:00 AM 39.2274 116.9600 341° North  Level Estimated
Sat 12:43:00 AM 39.3126 116.9229 341° North  Level Estimated
Sat 12:44:00 AM 39.3978 116.8858 341° North  Level Estimated
Sat 12:45:00 AM 39.4829 116.8485 341° North  Level Estimated
Sat 12:46:00 AM 39.5681 116.8112 341° North  Level Estimated
Sat 12:47:00 AM 39.6532 116.7737 341° North  Level Estimated
Sat 12:48:00 AM 39.7383 116.7362 341° North  Level Estimated
Sat 12:49:00 AM 39.8234 116.6986 341° North  Level Estimated
Sat 12:50:00 AM 39.9085 116.6609 341° North  Level Estimated
Sat 12:51:00 AM 39.9936 116.6231 341° North  Level Estimated
Sat 12:52:00 AM 40.0787 116.5852 341° North  Level Estimated
Sat 12:53:00 AM 40.0801 116.5846 341° North  Level Estimated
Sat 12:54:00 AM 40.0801 116.5846 North  Level Estimated
Sat 12:55:00 AM 40.0801 116.5846 North  Level Estimated
Sat 12:56:00 AM 40.0801 116.5846 North  Level Estimated
Sat 12:57:00 AM 40.0801 116.5846 North  Level Estimated
Sat 12:58:00 AM 40.0801 116.5846 North  Level Estimated
Sat 12:59:00 AM 40.0801 116.5846 North  Level Estimated
Sat 01:00:00 AM 40.0801 116.5846 North  Level Estimated
Sat 01:01:00 AM 40.0801 116.5846 North  Level Estimated

Login

Don't have an account? Register now (free) for customized features, flight alerts, and more!